sensor_id;sensor_type;location;lat;lon;timestamp;pressure;altitude;pressure_sealevel;temperature;humidity
40992;BME280;29633;49.168;9.848;2023-05-23T00:00:38;96628.13;;;22.41;61.23
40992;BME280;29633;49.168;9.848;2023-05-23T00:03:03;96625.28;;;22.42;61.11
40992;BME280;29633;49.168;9.848;2023-05-23T00:05:29;96625.47;;;22.41;61.15
40992;BME280;29633;49.168;9.848;2023-05-23T00:07:55;96631.34;;;22.36;61.42
40992;BME280;29633;49.168;9.848;2023-05-23T00:10:21;96630.75;;;22.34;61.24
40992;BME280;29633;49.168;9.848;2023-05-23T00:12:46;96625.88;;;22.31;61.58
40992;BME280;29633;49.168;9.848;2023-05-23T00:15:13;96628.50;;;22.31;61.57
40992;BME280;29633;49.168;9.848;2023-05-23T00:17:38;96626.88;;;22.30;61.64
40992;BME280;29633;49.168;9.848;2023-05-23T00:20:07;96629.69;;;22.29;61.79
40992;BME280;29633;49.168;9.848;2023-05-23T00:22:35;96624.81;;;22.26;61.29
40992;BME280;29633;49.168;9.848;2023-05-23T00:25:06;96622.19;;;22.26;61.38
40992;BME280;29633;49.168;9.848;2023-05-23T00:27:33;96623.41;;;22.23;61.51
40992;BME280;29633;49.168;9.848;2023-05-23T00:29:58;96617.50;;;22.21;61.52
40992;BME280;29633;49.168;9.848;2023-05-23T00:32:24;96626.03;;;22.17;61.61
40992;BME280;29633;49.168;9.848;2023-05-23T00:34:50;96627.03;;;22.16;61.40
40992;BME280;29633;49.168;9.848;2023-05-23T00:37:19;96626.03;;;22.17;61.33
40992;BME280;29633;49.168;9.848;2023-05-23T00:39:44;96627.84;;;22.16;61.54
40992;BME280;29633;49.168;9.848;2023-05-23T00:42:10;96627.44;;;22.13;61.69
40992;BME280;29633;49.168;9.848;2023-05-23T00:44:36;96624.97;;;22.11;61.76
40992;BME280;29633;49.168;9.848;2023-05-23T00:47:01;96630.66;;;22.08;61.53
40992;BME280;29633;49.168;9.848;2023-05-23T00:49:27;96627.03;;;22.09;61.73
40992;BME280;29633;49.168;9.848;2023-05-23T00:51:54;96635.34;;;22.06;61.37
40992;BME280;29633;49.168;9.848;2023-05-23T00:54:31;96625.78;;;22.05;61.46
40992;BME280;29633;49.168;9.848;2023-05-23T00:56:58;96633.06;;;22.03;61.76
40992;BME280;29633;49.168;9.848;2023-05-23T00:59:25;96634.28;;;22.00;61.75
40992;BME280;29633;49.168;9.848;2023-05-23T01:01:51;96642.44;;;21.99;61.75
40992;BME280;29633;49.168;9.848;2023-05-23T01:04:17;96636.13;;;22.00;61.57
40992;BME280;29633;49.168;9.848;2023-05-23T01:06:45;96636.50;;;21.97;61.51
40992;BME280;29633;49.168;9.848;2023-05-23T01:09:16;96648.28;;;21.94;61.53
40992;BME280;29633;49.168;9.848;2023-05-23T01:11:48;96644.66;;;21.95;61.66
40992;BME280;29633;49.168;9.848;2023-05-23T01:14:21;96643.56;;;21.90;61.88
40992;BME280;29633;49.168;9.848;2023-05-23T01:16:54;96645.19;;;21.84;61.76
40992;BME280;29633;49.168;9.848;2023-05-23T01:24:56;96648.97;;;21.75;61.98
40992;BME280;29633;49.168;9.848;2023-05-23T01:27:47;96655.47;;;21.73;61.56
40992;BME280;29633;49.168;9.848;2023-05-23T01:30:17;96653.22;;;21.70;61.96
40992;BME280;29633;49.168;9.848;2023-05-23T01:32:43;96642.25;;;21.66;61.47
40992;BME280;29633;49.168;9.848;2023-05-23T01:35:09;96646.47;;;21.60;61.71
40992;BME280;29633;49.168;9.848;2023-05-23T01:37:35;96642.41;;;21.58;62.07
40992;BME280;29633;49.168;9.848;2023-05-23T01:40:01;96636.69;;;21.54;61.76
40992;BME280;29633;49.168;9.848;2023-05-23T01:42:27;96646.00;;;21.50;61.98
40992;BME280;29633;49.168;9.848;2023-05-23T01:44:53;96650.28;;;21.51;62.04
40992;BME280;29633;49.168;9.848;2023-05-23T01:47:18;96649.03;;;21.47;62.06
40992;BME280;29633;49.168;9.848;2023-05-23T01:49:45;96643.13;;;21.45;62.05
40992;BME280;29633;49.168;9.848;2023-05-23T01:52:11;96646.16;;;21.42;62.04
40992;BME280;29633;49.168;9.848;2023-05-23T01:54:38;96649.19;;;21.39;62.00
40992;BME280;29633;49.168;9.848;2023-05-23T01:57:06;96642.06;;;21.33;62.08
40992;BME280;29633;49.168;9.848;2023-05-23T01:59:32;96647.31;;;21.33;62.11
40992;BME280;29633;49.168;9.848;2023-05-23T02:01:58;96653.00;;;21.30;61.80
40992;BME280;29633;49.168;9.848;2023-05-23T02:04:24;96654.81;;;21.30;62.19
40992;BME280;29633;49.168;9.848;2023-05-23T02:06:50;96660.66;;;21.25;62.31
40992;BME280;29633;49.168;9.848;2023-05-23T02:09:15;96653.31;;;21.21;62.20
40992;BME280;29633;49.168;9.848;2023-05-23T02:11:41;96654.50;;;21.18;62.06
40992;BME280;29633;49.168;9.848;2023-05-23T02:14:06;96649.00;;;21.13;62.07
40992;BME280;29633;49.168;9.848;2023-05-23T02:16:32;96652.97;;;21.09;62.44
40992;BME280;29633;49.168;9.848;2023-05-23T02:19:00;96658.03;;;21.04;62.15
40992;BME280;29633;49.168;9.848;2023-05-23T02:21:26;96662.47;;;21.03;62.52
40992;BME280;29633;49.168;9.848;2023-05-23T02:23:52;96657.78;;;20.99;62.52
40992;BME280;29633;49.168;9.848;2023-05-23T02:26:17;96660.78;;;20.96;62.62
40992;BME280;29633;49.168;9.848;2023-05-23T02:28:43;96651.63;;;20.92;62.26
40992;BME280;29633;49.168;9.848;2023-05-23T02:31:09;96655.47;;;20.89;62.64
40992;BME280;29633;49.168;9.848;2023-05-23T02:33:35;96663.56;;;20.88;62.40
40992;BME280;29633;49.168;9.848;2023-05-23T02:36:00;96661.75;;;20.88;62.26
40992;BME280;29633;49.168;9.848;2023-05-23T02:38:26;96663.94;;;20.85;62.68
40992;BME280;29633;49.168;9.848;2023-05-23T02:40:52;96665.16;;;20.82;62.41
40992;BME280;29633;49.168;9.848;2023-05-23T02:43:18;96670.41;;;20.82;62.66
40992;BME280;29633;49.168;9.848;2023-05-23T02:45:44;96672.22;;;20.82;62.87
40992;BME280;29633;49.168;9.848;2023-05-23T02:48:10;96671.41;;;20.81;62.83
40992;BME280;29633;49.168;9.848;2023-05-23T02:50:36;96677.50;;;20.82;63.08
40992;BME280;29633;49.168;9.848;2023-05-23T02:53:02;96678.88;;;20.78;62.77
40992;BME280;29633;49.168;9.848;2023-05-23T02:55:28;96675.63;;;20.76;62.90
40992;BME280;29633;49.168;9.848;2023-05-23T02:57:53;96682.06;;;20.73;63.18
40992;BME280;29633;49.168;9.848;2023-05-23T03:00:19;96674.16;;;20.73;63.01
40992;BME280;29633;49.168;9.848;2023-05-23T03:02:45;96679.25;;;20.75;63.05
40992;BME280;29633;49.168;9.848;2023-05-23T03:05:10;96681.72;;;20.76;63.15
40992;BME280;29633;49.168;9.848;2023-05-23T03:07:36;96686.16;;;20.76;63.19
40992;BME280;29633;49.168;9.848;2023-05-23T03:10:02;96681.72;;;20.76;63.28
40992;BME280;29633;49.168;9.848;2023-05-23T03:12:28;96675.63;;;20.76;63.28
40992;BME280;29633;49.168;9.848;2023-05-23T03:14:53;96681.72;;;20.76;63.56
40992;BME280;29633;49.168;9.848;2023-05-23T03:17:20;96685.97;;;20.77;63.62
40992;BME280;29633;49.168;9.848;2023-05-23T03:19:45;96693.03;;;20.77;63.30
40992;BME280;29633;49.168;9.848;2023-05-23T03:22:11;96683.72;;;20.74;63.47
40992;BME280;29633;49.168;9.848;2023-05-23T03:24:36;96679.25;;;20.75;63.59
40992;BME280;29633;49.168;9.848;2023-05-23T03:27:02;96676.25;;;20.78;63.55
40992;BME280;29633;49.168;9.848;2023-05-23T03:29:28;96684.97;;;20.78;63.54
40992;BME280;29633;49.168;9.848;2023-05-23T03:31:54;96682.34;;;20.78;63.73
40992;BME280;29633;49.168;9.848;2023-05-23T03:34:19;96690.25;;;20.78;63.92
40992;BME280;29633;49.168;9.848;2023-05-23T03:36:45;96694.69;;;20.78;63.64
40992;BME280;29633;49.168;9.848;2023-05-23T03:39:10;96691.06;;;20.79;63.89
40992;BME280;29633;49.168;9.848;2023-05-23T03:41:36;96691.06;;;20.79;64.27
40992;BME280;29633;49.168;9.848;2023-05-23T03:44:02;96691.06;;;20.79;64.21
40992;BME280;29633;49.168;9.848;2023-05-23T03:46:27;96693.47;;;20.80;64.17
40992;BME280;29633;49.168;9.848;2023-05-23T03:48:53;96695.34;;;20.80;64.45
40992;BME280;29633;49.168;9.848;2023-05-23T03:51:19;96698.16;;;20.78;64.24
40992;BME280;29633;49.168;9.848;2023-05-23T03:53:44;96700.41;;;20.81;64.19
40992;BME280;29633;49.168;9.848;2023-05-23T03:56:10;96699.19;;;20.84;64.22
40992;BME280;29633;49.168;9.848;2023-05-23T03:58:35;96698.03;;;20.86;64.21
40992;BME280;29633;49.168;9.848;2023-05-23T04:01:01;96705.72;;;20.88;64.23
40992;BME280;29633;49.168;9.848;2023-05-23T04:03:27;96702.09;;;20.89;64.17
40992;BME280;29633;49.168;9.848;2023-05-23T04:05:58;96712.63;;;20.89;64.32
40992;BME280;29633;49.168;9.848;2023-05-23T04:08:23;96713.63;;;20.88;64.72
40992;BME280;29633;49.168;9.848;2023-05-23T04:10:49;96718.28;;;20.86;64.71
40992;BME280;29633;49.168;9.848;2023-05-23T04:13:15;96711.81;;;20.88;64.47
40992;BME280;29633;49.168;9.848;2023-05-23T04:15:41;96712.25;;;20.92;64.66
40992;BME280;29633;49.168;9.848;2023-05-23T04:18:06;96714.31;;;20.96;64.76
40992;BME280;29633;49.168;9.848;2023-05-23T04:20:33;96718.41;;;20.99;64.64
40992;BME280;29633;49.168;9.848;2023-05-23T04:22:59;96717.41;;;21.00;64.82
40992;BME280;29633;49.168;9.848;2023-05-23T04:25:25;96721.66;;;21.01;64.73
40992;BME280;29633;49.168;9.848;2023-05-23T04:27:51;96720.66;;;21.02;64.79
40992;BME280;29633;49.168;9.848;2023-05-23T04:30:18;96719.84;;;21.01;64.92
40992;BME280;29633;49.168;9.848;2023-05-23T04:32:44;96726.72;;;21.02;65.03
40992;BME280;29633;49.168;9.848;2023-05-23T04:35:13;96727.75;;;21.01;64.98
40992;BME280;29633;49.168;9.848;2023-05-23T04:37:39;96730.19;;;21.03;64.76
40992;BME280;29633;49.168;9.848;2023-05-23T04:40:08;96727.56;;;21.03;64.61
40992;BME280;29633;49.168;9.848;2023-05-23T04:42:33;96728.19;;;21.05;64.72
40992;BME280;29633;49.168;9.848;2023-05-23T04:45:00;96734.47;;;21.04;65.01
40992;BME280;29633;49.168;9.848;2023-05-23T04:47:28;96731.19;;;21.02;65.06
40992;BME280;29633;49.168;9.848;2023-05-23T04:49:56;96733.03;;;21.01;65.21
40992;BME280;29633;49.168;9.848;2023-05-23T04:52:22;96726.94;;;21.01;65.28
40992;BME280;29633;49.168;9.848;2023-05-23T04:54:47;96729.38;;;21.02;65.06
40992;BME280;29633;49.168;9.848;2023-05-23T04:57:14;96732.81;;;21.03;65.32
40992;BME280;29633;49.168;9.848;2023-05-23T04:59:40;96732.22;;;21.01;65.20
40992;BME280;29633;49.168;9.848;2023-05-23T05:02:06;96738.91;;;21.03;65.20
40992;BME280;29633;49.168;9.848;2023-05-23T05:04:33;96732.66;;;21.04;65.45
40992;BME280;29633;49.168;9.848;2023-05-23T05:06:59;96734.25;;;21.05;65.54
40992;BME280;29633;49.168;9.848;2023-05-23T05:09:25;96738.38;;;21.08;65.07
40992;BME280;29633;49.168;9.848;2023-05-23T05:11:50;96733.91;;;21.08;65.29
40992;BME280;29633;49.168;9.848;2023-05-23T05:14:16;96735.97;;;21.13;65.07
40992;BME280;29633;49.168;9.848;2023-05-23T05:16:41;96723.66;;;21.20;65.25
40992;BME280;29633;49.168;9.848;2023-05-23T05:19:08;96730.84;;;21.26;65.18
40992;BME280;29633;49.168;9.848;2023-05-23T05:21:33;96735.72;;;21.29;65.18
40992;BME280;29633;49.168;9.848;2023-05-23T05:23:59;96737.38;;;21.30;65.43
40992;BME280;29633;49.168;9.848;2023-05-23T05:26:25;96748.72;;;21.31;65.32
40992;BME280;29633;49.168;9.848;2023-05-23T05:28:51;96745.88;;;21.32;65.18
40992;BME280;29633;49.168;9.848;2023-05-23T05:31:17;96750.41;;;21.38;65.41
40992;BME280;29633;49.168;9.848;2023-05-23T05:33:43;96752.47;;;21.43;65.39
40992;BME280;29633;49.168;9.848;2023-05-23T05:36:10;96753.28;;;21.43;65.53
40992;BME280;29633;49.168;9.848;2023-05-23T05:38:35;96752.91;;;21.46;65.45
40992;BME280;29633;49.168;9.848;2023-05-23T05:41:01;96751.50;;;21.50;65.42
40992;BME280;29633;49.168;9.848;2023-05-23T05:43:27;96752.13;;;21.52;65.42
40992;BME280;29633;49.168;9.848;2023-05-23T05:45:52;96748.47;;;21.53;65.65
40992;BME280;29633;49.168;9.848;2023-05-23T05:48:18;96741.81;;;21.57;65.36
40992;BME280;29633;49.168;9.848;2023-05-23T05:50:43;96742.50;;;21.66;65.22
40992;BME280;29633;49.168;9.848;2023-05-23T05:53:10;96739.25;;;21.71;65.46
40992;BME280;29633;49.168;9.848;2023-05-23T05:55:37;96744.78;;;21.76;65.71
40992;BME280;29633;49.168;9.848;2023-05-23T05:58:02;96745.59;;;21.76;65.64
40992;BME280;29633;49.168;9.848;2023-05-23T06:00:30;96746.84;;;21.80;65.67
40992;BME280;29633;49.168;9.848;2023-05-23T06:02:56;96750.53;;;21.86;65.24
40992;BME280;29633;49.168;9.848;2023-05-23T06:05:22;96747.34;;;21.90;65.31
40992;BME280;29633;49.168;9.848;2023-05-23T06:07:48;96750.84;;;21.97;65.62
40992;BME280;29633;49.168;9.848;2023-05-23T06:10:14;96753.28;;;21.99;65.35
40992;BME280;29633;49.168;9.848;2023-05-23T06:12:40;96759.75;;;21.96;65.70
40992;BME280;29633;49.168;9.848;2023-05-23T06:15:06;96757.75;;;21.98;65.69
40992;BME280;29633;49.168;9.848;2023-05-23T06:17:33;96758.94;;;21.96;65.83
40992;BME280;29633;49.168;9.848;2023-05-23T06:19:59;96761.22;;;21.99;65.74
40992;BME280;29633;49.168;9.848;2023-05-23T06:22:25;96763.47;;;22.02;65.86
40992;BME280;29633;49.168;9.848;2023-05-23T06:24:51;96769.34;;;22.04;65.83
40992;BME280;29633;49.168;9.848;2023-05-23T06:27:16;96759.78;;;22.03;65.64
40992;BME280;29633;49.168;9.848;2023-05-23T06:29:42;96772.00;;;22.04;65.91
40992;BME280;29633;49.168;9.848;2023-05-23T06:32:08;96774.22;;;22.07;66.05
40992;BME280;29633;49.168;9.848;2023-05-23T06:34:33;96779.75;;;22.12;65.62
40992;BME280;29633;49.168;9.848;2023-05-23T06:36:59;96781.81;;;22.17;65.70
40992;BME280;29633;49.168;9.848;2023-05-23T06:39:25;96780.59;;;22.19;65.80
40992;BME280;29633;49.168;9.848;2023-05-23T06:41:50;96787.53;;;22.20;65.66
40992;BME280;29633;49.168;9.848;2023-05-23T06:44:16;96789.97;;;22.22;66.05
40992;BME280;29633;49.168;9.848;2023-05-23T06:46:43;96793.19;;;22.17;66.03
40992;BME280;29633;49.168;9.848;2023-05-23T06:49:09;96790.56;;;22.17;66.10
40992;BME280;29633;49.168;9.848;2023-05-23T06:51:35;96792.81;;;22.20;65.87
40992;BME280;29633;49.168;9.848;2023-05-23T06:54:01;96803.97;;;22.22;65.90
40992;BME280;29633;49.168;9.848;2023-05-23T06:56:26;96788.38;;;22.27;65.89
40992;BME280;29633;49.168;9.848;2023-05-23T06:58:52;96793.88;;;22.32;65.92
40992;BME280;29633;49.168;9.848;2023-05-23T07:01:17;96786.38;;;22.36;65.70
40992;BME280;29633;49.168;9.848;2023-05-23T07:03:43;96788.81;;;22.37;65.87
40992;BME280;29633;49.168;9.848;2023-05-23T07:06:10;96799.81;;;22.41;66.19
40992;BME280;29633;49.168;9.848;2023-05-23T07:08:36;96805.91;;;22.41;65.80
40992;BME280;29633;49.168;9.848;2023-05-23T07:11:02;96806.72;;;22.42;66.17
40992;BME280;29633;49.168;9.848;2023-05-23T07:13:27;96815.66;;;22.41;66.05
40992;BME280;29633;49.168;9.848;2023-05-23T07:15:54;96815.47;;;22.42;65.94
40992;BME280;29633;49.168;9.848;2023-05-23T07:18:20;96816.28;;;22.43;65.87
40992;BME280;29633;49.168;9.848;2023-05-23T07:20:45;96825.00;;;22.43;65.90
40992;BME280;29633;49.168;9.848;2023-05-23T07:23:11;96816.50;;;22.48;65.91
40992;BME280;29633;49.168;9.848;2023-05-23T07:25:36;96813.25;;;22.46;65.74
40992;BME280;29633;49.168;9.848;2023-05-23T07:28:04;96818.75;;;22.51;65.82
40992;BME280;29633;49.168;9.848;2023-05-23T07:30:30;96819.00;;;22.56;65.27
40992;BME280;29633;49.168;9.848;2023-05-23T07:32:56;96815.75;;;22.61;65.36
40992;BME280;29633;49.168;9.848;2023-05-23T07:35:22;96814.16;;;22.66;65.24
40992;BME280;29633;49.168;9.848;2023-05-23T07:37:53;96822.34;;;22.71;65.49
40992;BME280;29633;49.168;9.848;2023-05-23T07:40:20;96816.66;;;22.74;65.16
40992;BME280;29633;49.168;9.848;2023-05-23T07:42:46;96822.75;;;22.75;65.48
40992;BME280;29633;49.168;9.848;2023-05-23T07:45:12;96828.03;;;22.75;65.30
40992;BME280;29633;49.168;9.848;2023-05-23T07:47:37;96825.59;;;22.80;65.13
40992;BME280;29633;49.168;9.848;2023-05-23T07:50:04;96827.91;;;22.89;65.09
40992;BME280;29633;49.168;9.848;2023-05-23T07:52:30;96832.59;;;23.00;65.03
40992;BME280;29633;49.168;9.848;2023-05-23T07:54:56;96824.88;;;23.12;64.82
40992;BME280;29633;49.168;9.848;2023-05-23T07:57:22;96839.16;;;23.24;64.72
40992;BME280;29633;49.168;9.848;2023-05-23T07:59:49;96819.00;;;23.30;65.01
40992;BME280;29633;49.168;9.848;2023-05-23T08:02:15;96830.63;;;23.35;64.83
40992;BME280;29633;49.168;9.848;2023-05-23T08:04:43;96833.50;;;23.40;65.05
40992;BME280;29633;49.168;9.848;2023-05-23T08:07:10;96832.13;;;23.51;64.58
40992;BME280;29633;49.168;9.848;2023-05-23T08:09:39;96838.22;;;23.65;64.63
40992;BME280;29633;49.168;9.848;2023-05-23T08:12:08;96833.13;;;23.70;64.57
40992;BME280;29633;49.168;9.848;2023-05-23T08:14:34;96842.09;;;23.69;64.77
40992;BME280;29633;49.168;9.848;2023-05-23T08:17:00;96841.69;;;23.72;64.53
40992;BME280;29633;49.168;9.848;2023-05-23T08:19:27;96843.34;;;23.73;64.60
40992;BME280;29633;49.168;9.848;2023-05-23T08:21:53;96851.06;;;23.74;64.57
40992;BME280;29633;49.168;9.848;2023-05-23T08:24:19;96853.09;;;23.79;64.68
40992;BME280;29633;49.168;9.848;2023-05-23T08:26:46;96867.97;;;23.80;64.51
40992;BME280;29633;49.168;9.848;2023-05-23T08:29:12;96865.91;;;23.82;64.45
40992;BME280;29633;49.168;9.848;2023-05-23T08:31:39;96864.91;;;23.83;64.46
40992;BME280;29633;49.168;9.848;2023-05-23T08:34:05;96869.78;;;23.86;64.48
40992;BME280;29633;49.168;9.848;2023-05-23T08:36:31;96866.72;;;23.89;64.36
40992;BME280;29633;49.168;9.848;2023-05-23T08:38:58;96868.78;;;23.87;64.41
40992;BME280;29633;49.168;9.848;2023-05-23T08:41:24;96870.00;;;23.91;64.21
40992;BME280;29633;49.168;9.848;2023-05-23T08:43:51;96865.53;;;23.98;64.16
40992;BME280;29633;49.168;9.848;2023-05-23T08:46:16;96875.47;;;24.02;63.97
40992;BME280;29633;49.168;9.848;2023-05-23T08:48:43;96874.69;;;24.09;64.09
40992;BME280;29633;49.168;9.848;2023-05-23T08:51:11;96888.13;;;24.14;63.55
40992;BME280;29633;49.168;9.848;2023-05-23T08:53:40;96884.88;;;24.18;63.82
40992;BME280;29633;49.168;9.848;2023-05-23T08:56:05;96888.13;;;24.20;63.72
40992;BME280;29633;49.168;9.848;2023-05-23T08:58:33;96883.66;;;24.21;64.00
40992;BME280;29633;49.168;9.848;2023-05-23T09:00:59;96886.13;;;24.16;63.63
40992;BME280;29633;49.168;9.848;2023-05-23T09:03:26;96885.91;;;24.17;63.73
40992;BME280;29633;49.168;9.848;2023-05-23T09:05:55;96890.78;;;24.20;63.79
40992;BME280;29633;49.168;9.848;2023-05-23T09:08:20;96879.97;;;24.28;63.66
40992;BME280;29633;49.168;9.848;2023-05-23T09:10:47;96890.56;;;24.28;63.61
40992;BME280;29633;49.168;9.848;2023-05-23T09:13:16;96881.81;;;24.28;63.50
40992;BME280;29633;49.168;9.848;2023-05-23T09:16:02;96894.66;;;24.31;63.57
40992;BME280;29633;49.168;9.848;2023-05-23T09:18:39;96890.16;;;24.31;63.48
40992;BME280;29633;49.168;9.848;2023-05-23T09:21:07;96886.06;;;24.35;63.25
40992;BME280;29633;49.168;9.848;2023-05-23T09:23:35;96890.56;;;24.41;63.43
40992;BME280;29633;49.168;9.848;2023-05-23T09:26:02;96892.78;;;24.51;63.16
40992;BME280;29633;49.168;9.848;2023-05-23T09:28:29;96892.16;;;24.56;63.26
40992;BME280;29633;49.168;9.848;2023-05-23T09:31:05;96886.84;;;24.62;63.03
40992;BME280;29633;49.168;9.848;2023-05-23T09:33:45;96892.31;;;24.67;63.02
40992;BME280;29633;49.168;9.848;2023-05-23T09:36:12;96890.47;;;24.68;63.01
40992;BME280;29633;49.168;9.848;2023-05-23T09:38:39;96896.22;;;24.65;63.24
40992;BME280;29633;49.168;9.848;2023-05-23T09:41:07;96893.56;;;24.65;63.21
40992;BME280;29633;49.168;9.848;2023-05-23T09:43:32;96892.53;;;24.66;63.07
40992;BME280;29633;49.168;9.848;2023-05-23T09:46:11;96885.81;;;24.70;63.05
40992;BME280;29633;49.168;9.848;2023-05-23T09:48:37;96885.41;;;24.66;63.13
40992;BME280;29633;49.168;9.848;2023-05-23T09:51:09;96891.53;;;24.67;63.23
40992;BME280;29633;49.168;9.848;2023-05-23T09:53:35;96893.56;;;24.65;62.99
40992;BME280;29633;49.168;9.848;2023-05-23T09:56:02;96896.44;;;24.63;63.21
40992;BME280;29633;49.168;9.848;2023-05-23T09:58:29;96899.47;;;24.60;62.91
40992;BME280;29633;49.168;9.848;2023-05-23T10:00:55;96898.47;;;24.55;63.18
40992;BME280;29633;49.168;9.848;2023-05-23T10:09:08;96907.47;;;24.47;62.92
40992;BME280;29633;49.168;9.848;2023-05-23T10:12:17;96901.34;;;24.46;62.97
40992;BME280;29633;49.168;9.848;2023-05-23T10:14:51;96901.34;;;24.46;63.03
40992;BME280;29633;49.168;9.848;2023-05-23T10:17:19;96905.81;;;24.46;63.13
40992;BME280;29633;49.168;9.848;2023-05-23T10:19:59;96911.34;;;24.44;62.95
40992;BME280;29633;49.168;9.848;2023-05-23T10:22:25;96904.84;;;24.40;62.93
40992;BME280;29633;49.168;9.848;2023-05-23T10:24:51;96918.28;;;24.39;63.03
40992;BME280;29633;49.168;9.848;2023-05-23T10:27:18;96910.34;;;24.32;62.76
40992;BME280;29633;49.168;9.848;2023-05-23T10:29:43;96916.66;;;24.25;62.93
40992;BME280;29633;49.168;9.848;2023-05-23T10:32:09;96917.69;;;24.17;62.93
40992;BME280;29633;49.168;9.848;2023-05-23T10:37:51;96915.25;;;24.16;62.75
40992;BME280;29633;49.168;9.848;2023-05-23T10:40:26;96914.63;;;24.20;62.89
40992;BME280;29633;49.168;9.848;2023-05-23T10:43:09;96913.81;;;24.26;62.28
40992;BME280;29633;49.168;9.848;2023-05-23T10:45:41;96914.81;;;24.32;62.42
40992;BME280;29633;49.168;9.848;2023-05-23T10:48:40;96915.22;;;24.42;62.25
40992;BME280;29633;49.168;9.848;2023-05-23T10:51:09;96904.81;;;24.47;62.35
40992;BME280;29633;49.168;9.848;2023-05-23T10:53:42;96903.59;;;24.56;62.13
40992;BME280;29633;49.168;9.848;2023-05-23T10:56:13;96906.81;;;24.65;62.18
40992;BME280;29633;49.168;9.848;2023-05-23T10:58:43;96908.81;;;24.76;61.95
40992;BME280;29633;49.168;9.848;2023-05-23T11:01:12;96911.69;;;24.81;62.26
40992;BME280;29633;49.168;9.848;2023-05-23T11:06:28;96910.63;;;24.82;62.10
40992;BME280;29633;49.168;9.848;2023-05-23T11:09:03;96913.69;;;24.79;61.94
40992;BME280;29633;49.168;9.848;2023-05-23T11:14:17;96917.38;;;24.91;62.11
40992;BME280;29633;49.168;9.848;2023-05-23T11:16:44;96913.72;;;24.92;61.80
40992;BME280;29633;49.168;9.848;2023-05-23T11:19:20;96914.94;;;24.89;61.98
40992;BME280;29633;49.168;9.848;2023-05-23T11:21:53;96911.25;;;24.90;61.81
40992;BME280;29633;49.168;9.848;2023-05-23T11:24:19;96919.63;;;24.87;61.91
40992;BME280;29633;49.168;9.848;2023-05-23T11:26:53;96916.16;;;24.87;62.05
40992;BME280;29633;49.168;9.848;2023-05-23T11:29:19;96912.06;;;24.91;61.94
40992;BME280;29633;49.168;9.848;2023-05-23T11:31:45;96915.75;;;24.90;61.79
40992;BME280;29633;49.168;9.848;2023-05-23T11:34:11;96913.09;;;24.90;61.79
40992;BME280;29633;49.168;9.848;2023-05-23T11:36:38;96918.81;;;24.87;61.95
40992;BME280;29633;49.168;9.848;2023-05-23T11:39:05;96915.16;;;24.88;61.77
40992;BME280;29633;49.168;9.848;2023-05-23T11:41:31;96919.25;;;24.84;61.80
40992;BME280;29633;49.168;9.848;2023-05-23T11:43:58;96920.88;;;24.85;61.90
40992;BME280;29633;49.168;9.848;2023-05-23T11:46:24;96924.72;;;24.89;61.88
40992;BME280;29633;49.168;9.848;2023-05-23T11:48:50;96919.41;;;24.89;61.94
40992;BME280;29633;49.168;9.848;2023-05-23T11:51:15;96920.47;;;24.88;61.84
40992;BME280;29633;49.168;9.848;2023-05-23T11:53:41;96925.09;;;24.92;61.74
40992;BME280;29633;49.168;9.848;2023-05-23T11:56:07;96919.00;;;24.92;61.91
40992;BME280;29633;49.168;9.848;2023-05-23T11:58:37;96913.72;;;24.92;61.75
40992;BME280;29633;49.168;9.848;2023-05-23T12:01:08;96922.25;;;24.94;61.75
40992;BME280;29633;49.168;9.848;2023-05-23T12:03:43;96913.47;;;24.93;61.37
40992;BME280;29633;49.168;9.848;2023-05-23T12:06:10;96922.06;;;24.95;61.27
40992;BME280;29633;49.168;9.848;2023-05-23T12:08:35;96917.16;;;24.99;61.11
40992;BME280;29633;49.168;9.848;2023-05-23T12:11:01;96916.53;;;24.97;61.37
40992;BME280;29633;49.168;9.848;2023-05-23T12:13:28;96918.78;;;24.93;61.28
40992;BME280;29633;49.168;9.848;2023-05-23T12:15:59;96916.13;;;24.93;61.08
40992;BME280;29633;49.168;9.848;2023-05-23T12:18:29;96914.09;;;24.95;61.08
40992;BME280;29633;49.168;9.848;2023-05-23T12:20:58;96917.34;;;24.97;60.94
40992;BME280;29633;49.168;9.848;2023-05-23T12:23:25;96916.09;;;25.00;60.90
40992;BME280;29633;49.168;9.848;2023-05-23T12:25:52;96918.75;;;25.00;61.03
40992;BME280;29633;49.168;9.848;2023-05-23T12:28:18;96920.81;;;24.98;60.94
40992;BME280;29633;49.168;9.848;2023-05-23T12:30:45;96916.97;;;24.94;60.88
40992;BME280;29633;49.168;9.848;2023-05-23T12:33:11;96920.03;;;24.91;61.03
40992;BME280;29633;49.168;9.848;2023-05-23T12:35:36;96919.81;;;24.92;61.01
40992;BME280;29633;49.168;9.848;2023-05-23T12:38:04;96924.72;;;24.89;60.88
40992;BME280;29633;49.168;9.848;2023-05-23T12:40:31;96925.53;;;24.83;60.80
40992;BME280;29633;49.168;9.848;2023-05-23T12:42:57;96929.63;;;24.79;60.83
40992;BME280;29633;49.168;9.848;2023-05-23T12:45:33;96925.56;;;24.76;60.71
40992;BME280;29633;49.168;9.848;2023-05-23T12:47:59;96922.09;;;24.76;61.01
40992;BME280;29633;49.168;9.848;2023-05-23T12:50:26;96922.09;;;24.76;60.58
40992;BME280;29633;49.168;9.848;2023-05-23T12:52:52;96921.88;;;24.71;60.85
40992;BME280;29633;49.168;9.848;2023-05-23T12:55:17;96923.94;;;24.69;60.63
40992;BME280;29633;49.168;9.848;2023-05-23T12:57:43;96918.81;;;24.67;60.82
40992;BME280;29633;49.168;9.848;2023-05-23T13:00:10;96917.41;;;24.65;60.54
40992;BME280;29633;49.168;9.848;2023-05-23T13:02:36;96911.31;;;24.58;60.67
40992;BME280;29633;49.168;9.848;2023-05-23T13:05:02;96912.13;;;24.58;60.63
40992;BME280;29633;49.168;9.848;2023-05-23T13:07:27;96908.25;;;24.61;60.75
40992;BME280;29633;49.168;9.848;2023-05-23T13:09:53;96909.69;;;24.57;60.74
40992;BME280;29633;49.168;9.848;2023-05-23T13:12:19;96917.84;;;24.62;60.84
40992;BME280;29633;49.168;9.848;2023-05-23T13:14:45;96916.44;;;24.59;60.55
40992;BME280;29633;49.168;9.848;2023-05-23T13:17:11;96912.13;;;24.58;60.64
40992;BME280;29633;49.168;9.848;2023-05-23T13:19:36;96908.47;;;24.59;60.49